CEC weather

Jack Mc Namara Field Airport
Crescent City, California, United States

Public forecast

Using degrees Fahrenheit for public forecast. Weather courtesy of forecast.io.

Current aviation weather report (METAR) for Jack Mc Namara Field Airport

Retrieved 2019/11/19 02:40 UTC (0 seconds ago):

KCEC 190240Z AUTO 18008KT 9SM SCT003 OVC009 12/12 A2991 RMK AO2 T01220122

Aviation forecast (TAF) for Jack Mc Namara Field Airport

Retrieved 2019-11-19 00:39 UTC (2 hours ago):

TAF KCEC 182336Z 1900/1924 12005KT 6SM -RA BKN008 OVC015 TEMPO 1900/1904 2SM -RA BR OVC008 FM190900 VRB04KT 6SM BR VCSH OVC015 FM191200 VRB02KT 6SM BR SCT010 FM192000 34010KT P6SM SKC